sensor_id;sensor_type;location;lat;lon;timestamp;P1;durP1;ratioP1;P2;durP2;ratioP2
9052;SDS011;4561;47.450;7.516;2022-07-23T00:01:11;10.10;;;8.73;;
9052;SDS011;4561;47.450;7.516;2022-07-23T00:04:32;13.30;;;9.47;;
9052;SDS011;4561;47.450;7.516;2022-07-23T00:07:53;10.10;;;9.17;;
9052;SDS011;4561;47.450;7.516;2022-07-23T00:11:13;10.83;;;9.83;;
9052;SDS011;4561;47.450;7.516;2022-07-23T00:14:38;10.20;;;8.60;;
9052;SDS011;4561;47.450;7.516;2022-07-23T00:17:59;10.10;;;8.33;;
9052;SDS011;4561;47.450;7.516;2022-07-23T00:21:21;8.93;;;8.03;;
9052;SDS011;4561;47.450;7.516;2022-07-23T00:24:44;9.23;;;7.30;;
9052;SDS011;4561;47.450;7.516;2022-07-23T00:28:07;8.93;;;7.83;;
9052;SDS011;4561;47.450;7.516;2022-07-23T00:31:27;8.60;;;7.77;;
9052;SDS011;4561;47.450;7.516;2022-07-23T00:34:48;8.40;;;7.63;;
9052;SDS011;4561;47.450;7.516;2022-07-23T00:38:08;8.60;;;7.53;;
9052;SDS011;4561;47.450;7.516;2022-07-23T00:41:32;7.80;;;7.07;;
9052;SDS011;4561;47.450;7.516;2022-07-23T00:44:54;8.37;;;7.50;;
9052;SDS011;4561;47.450;7.516;2022-07-23T00:48:17;9.57;;;7.80;;
9052;SDS011;4561;47.450;7.516;2022-07-23T00:51:38;7.83;;;7.13;;
9052;SDS011;4561;47.450;7.516;2022-07-23T00:54:58;8.07;;;7.30;;
9052;SDS011;4561;47.450;7.516;2022-07-23T00:58:19;8.57;;;7.80;;
9052;SDS011;4561;47.450;7.516;2022-07-23T01:01:40;15.03;;;9.10;;
9052;SDS011;4561;47.450;7.516;2022-07-23T01:05:00;8.30;;;7.43;;
9052;SDS011;4561;47.450;7.516;2022-07-23T01:08:21;10.50;;;9.50;;
9052;SDS011;4561;47.450;7.516;2022-07-23T01:11:44;10.00;;;9.20;;
9052;SDS011;4561;47.450;7.516;2022-07-23T01:15:04;11.77;;;9.80;;
9052;SDS011;4561;47.450;7.516;2022-07-23T01:18:25;9.07;;;8.17;;
9052;SDS011;4561;47.450;7.516;2022-07-23T01:21:49;12.00;;;8.67;;
9052;SDS011;4561;47.450;7.516;2022-07-23T01:25:12;10.10;;;9.10;;
9052;SDS011;4561;47.450;7.516;2022-07-23T01:28:33;10.70;;;8.53;;
9052;SDS011;4561;47.450;7.516;2022-07-23T01:31:55;10.07;;;9.17;;
9052;SDS011;4561;47.450;7.516;2022-07-23T01:35:16;14.33;;;8.90;;
9052;SDS011;4561;47.450;7.516;2022-07-23T01:38:39;10.43;;;9.23;;
9052;SDS011;4561;47.450;7.516;2022-07-23T01:41:59;9.50;;;8.60;;
9052;SDS011;4561;47.450;7.516;2022-07-23T01:45:19;10.77;;;9.80;;
9052;SDS011;4561;47.450;7.516;2022-07-23T01:48:40;9.37;;;8.40;;
9052;SDS011;4561;47.450;7.516;2022-07-23T01:52:00;11.27;;;8.73;;
9052;SDS011;4561;47.450;7.516;2022-07-23T01:55:21;12.83;;;10.40;;
9052;SDS011;4561;47.450;7.516;2022-07-23T01:58:44;11.70;;;9.37;;
9052;SDS011;4561;47.450;7.516;2022-07-23T02:02:04;10.50;;;9.50;;
9052;SDS011;4561;47.450;7.516;2022-07-23T02:05:25;10.27;;;9.47;;
9052;SDS011;4561;47.450;7.516;2022-07-23T02:08:48;11.37;;;10.20;;
9052;SDS011;4561;47.450;7.516;2022-07-23T02:12:09;11.40;;;9.93;;
9052;SDS011;4561;47.450;7.516;2022-07-23T02:15:31;10.83;;;9.93;;
9052;SDS011;4561;47.450;7.516;2022-07-23T02:18:52;12.60;;;11.43;;
9052;SDS011;4561;47.450;7.516;2022-07-23T02:22:15;12.67;;;11.43;;
9052;SDS011;4561;47.450;7.516;2022-07-23T02:25:35;12.10;;;10.90;;
9052;SDS011;4561;47.450;7.516;2022-07-23T02:28:55;10.00;;;9.03;;
9052;SDS011;4561;47.450;7.516;2022-07-23T02:32:18;10.53;;;9.63;;
9052;SDS011;4561;47.450;7.516;2022-07-23T02:35:41;9.30;;;8.50;;
9052;SDS011;4561;47.450;7.516;2022-07-23T02:39:03;10.57;;;9.67;;
9052;SDS011;4561;47.450;7.516;2022-07-23T02:42:26;11.20;;;10.23;;
9052;SDS011;4561;47.450;7.516;2022-07-23T02:45:46;10.97;;;9.97;;
9052;SDS011;4561;47.450;7.516;2022-07-23T02:49:07;13.40;;;12.00;;
9052;SDS011;4561;47.450;7.516;2022-07-23T02:52:27;17.80;;;12.23;;
9052;SDS011;4561;47.450;7.516;2022-07-23T02:55:48;10.30;;;9.30;;
9052;SDS011;4561;47.450;7.516;2022-07-23T02:59:08;12.73;;;10.57;;
9052;SDS011;4561;47.450;7.516;2022-07-23T03:02:29;10.93;;;9.93;;
9052;SDS011;4561;47.450;7.516;2022-07-23T03:05:52;12.30;;;11.10;;
9052;SDS011;4561;47.450;7.516;2022-07-23T03:09:12;11.20;;;10.03;;
9052;SDS011;4561;47.450;7.516;2022-07-23T03:12:35;11.47;;;10.00;;
9052;SDS011;4561;47.450;7.516;2022-07-23T03:15:55;11.23;;;10.17;;
9052;SDS011;4561;47.450;7.516;2022-07-23T03:19:20;10.97;;;9.97;;
9052;SDS011;4561;47.450;7.516;2022-07-23T03:22:40;10.63;;;9.73;;
9052;SDS011;4561;47.450;7.516;2022-07-23T03:26:03;10.37;;;9.53;;
9052;SDS011;4561;47.450;7.516;2022-07-23T03:29:23;10.70;;;9.80;;
9052;SDS011;4561;47.450;7.516;2022-07-23T03:32:44;11.53;;;10.37;;
9052;SDS011;4561;47.450;7.516;2022-07-23T03:36:07;11.30;;;10.20;;
9052;SDS011;4561;47.450;7.516;2022-07-23T03:39:30;17.30;;;10.83;;
9052;SDS011;4561;47.450;7.516;2022-07-23T03:42:53;12.13;;;10.93;;
9052;SDS011;4561;47.450;7.516;2022-07-23T03:46:15;662.53;;;41.50;;
9052;SDS011;4561;47.450;7.516;2022-07-23T03:49:35;37.77;;;14.40;;
9052;SDS011;4561;47.450;7.516;2022-07-23T03:52:56;14.17;;;12.87;;
9052;SDS011;4561;47.450;7.516;2022-07-23T03:56:16;241.17;;;24.87;;
9052;SDS011;4561;47.450;7.516;2022-07-23T03:59:37;64.87;;;26.50;;
9052;SDS011;4561;47.450;7.516;2022-07-23T04:02:57;21.77;;;17.90;;
9052;SDS011;4561;47.450;7.516;2022-07-23T04:06:17;16.77;;;14.73;;
9052;SDS011;4561;47.450;7.516;2022-07-23T04:09:38;15.37;;;13.93;;
9052;SDS011;4561;47.450;7.516;2022-07-23T04:13:03;15.63;;;14.07;;
9052;SDS011;4561;47.450;7.516;2022-07-23T04:16:23;14.70;;;13.13;;
9052;SDS011;4561;47.450;7.516;2022-07-23T04:19:44;14.90;;;13.60;;
9052;SDS011;4561;47.450;7.516;2022-07-23T04:23:04;13.70;;;12.23;;
9052;SDS011;4561;47.450;7.516;2022-07-23T04:26:29;13.50;;;12.20;;
9052;SDS011;4561;47.450;7.516;2022-07-23T04:29:50;15.20;;;13.67;;
9052;SDS011;4561;47.450;7.516;2022-07-23T04:33:10;13.90;;;12.50;;
9052;SDS011;4561;47.450;7.516;2022-07-23T04:36:33;12.33;;;11.10;;
9052;SDS011;4561;47.450;7.516;2022-07-23T04:39:53;13.03;;;11.40;;
9052;SDS011;4561;47.450;7.516;2022-07-23T04:43:14;12.33;;;11.10;;
9052;SDS011;4561;47.450;7.516;2022-07-23T04:46:37;11.80;;;10.70;;
9052;SDS011;4561;47.450;7.516;2022-07-23T04:50:00;14.03;;;10.97;;
9052;SDS011;4561;47.450;7.516;2022-07-23T04:53:20;12.63;;;11.50;;
9052;SDS011;4561;47.450;7.516;2022-07-23T04:56:46;12.70;;;11.50;;
9052;SDS011;4561;47.450;7.516;2022-07-23T05:00:09;12.53;;;11.27;;
9052;SDS011;4561;47.450;7.516;2022-07-23T05:03:32;12.27;;;11.17;;
9052;SDS011;4561;47.450;7.516;2022-07-23T05:06:55;12.27;;;10.83;;
9052;SDS011;4561;47.450;7.516;2022-07-23T05:10:16;11.40;;;10.13;;
9052;SDS011;4561;47.450;7.516;2022-07-23T05:13:36;12.20;;;11.10;;
9052;SDS011;4561;47.450;7.516;2022-07-23T05:16:56;15.80;;;11.30;;
9052;SDS011;4561;47.450;7.516;2022-07-23T05:20:17;12.00;;;11.00;;
9052;SDS011;4561;47.450;7.516;2022-07-23T05:23:40;13.13;;;12.03;;
9052;SDS011;4561;47.450;7.516;2022-07-23T05:27:00;12.90;;;11.67;;
9052;SDS011;4561;47.450;7.516;2022-07-23T05:30:21;11.40;;;10.33;;
9052;SDS011;4561;47.450;7.516;2022-07-23T05:33:43;13.47;;;12.03;;
9052;SDS011;4561;47.450;7.516;2022-07-23T05:37:06;15.90;;;13.63;;
9052;SDS011;4561;47.450;7.516;2022-07-23T05:40:28;13.17;;;11.93;;
9052;SDS011;4561;47.450;7.516;2022-07-23T05:43:49;14.90;;;13.60;;
9052;SDS011;4561;47.450;7.516;2022-07-23T05:47:12;15.97;;;14.57;;
9052;SDS011;4561;47.450;7.516;2022-07-23T05:50:32;13.53;;;12.23;;
9052;SDS011;4561;47.450;7.516;2022-07-23T05:53:53;14.40;;;13.13;;
9052;SDS011;4561;47.450;7.516;2022-07-23T05:57:13;13.70;;;12.57;;
9052;SDS011;4561;47.450;7.516;2022-07-23T06:00:36;12.30;;;11.00;;
9052;SDS011;4561;47.450;7.516;2022-07-23T06:03:56;12.70;;;11.50;;
9052;SDS011;4561;47.450;7.516;2022-07-23T06:07:17;11.63;;;10.50;;
9052;SDS011;4561;47.450;7.516;2022-07-23T06:10:39;12.80;;;11.63;;
9052;SDS011;4561;47.450;7.516;2022-07-23T06:14:00;14.90;;;12.77;;
9052;SDS011;4561;47.450;7.516;2022-07-23T06:17:20;13.23;;;12.13;;
9052;SDS011;4561;47.450;7.516;2022-07-23T06:20:43;15.53;;;14.13;;
9052;SDS011;4561;47.450;7.516;2022-07-23T06:24:03;14.33;;;12.93;;
9052;SDS011;4561;47.450;7.516;2022-07-23T06:27:26;13.97;;;12.73;;
9052;SDS011;4561;47.450;7.516;2022-07-23T06:30:49;13.67;;;12.57;;
9052;SDS011;4561;47.450;7.516;2022-07-23T06:34:09;13.13;;;11.83;;
9052;SDS011;4561;47.450;7.516;2022-07-23T06:37:30;15.73;;;14.30;;
9052;SDS011;4561;47.450;7.516;2022-07-23T06:40:50;17.30;;;15.50;;
9052;SDS011;4561;47.450;7.516;2022-07-23T06:44:13;16.07;;;14.47;;
9052;SDS011;4561;47.450;7.516;2022-07-23T06:47:33;14.60;;;13.03;;
9052;SDS011;4561;47.450;7.516;2022-07-23T06:50:57;14.27;;;13.07;;
9052;SDS011;4561;47.450;7.516;2022-07-23T06:54:17;14.07;;;12.87;;
9052;SDS011;4561;47.450;7.516;2022-07-23T06:57:38;14.33;;;12.97;;
9052;SDS011;4561;47.450;7.516;2022-07-23T07:01:01;12.33;;;11.33;;
9052;SDS011;4561;47.450;7.516;2022-07-23T07:04:21;13.40;;;11.27;;
9052;SDS011;4561;47.450;7.516;2022-07-23T07:07:42;11.13;;;10.03;;
9052;SDS011;4561;47.450;7.516;2022-07-23T07:11:04;10.57;;;9.67;;
9052;SDS011;4561;47.450;7.516;2022-07-23T07:14:25;10.83;;;9.80;;
9052;SDS011;4561;47.450;7.516;2022-07-23T07:17:50;10.00;;;9.20;;
9052;SDS011;4561;47.450;7.516;2022-07-23T07:21:13;12.87;;;11.70;;
9052;SDS011;4561;47.450;7.516;2022-07-23T07:24:33;13.87;;;12.73;;
9052;SDS011;4561;47.450;7.516;2022-07-23T07:27:54;14.63;;;13.23;;
9052;SDS011;4561;47.450;7.516;2022-07-23T07:31:16;13.77;;;12.57;;
9052;SDS011;4561;47.450;7.516;2022-07-23T07:34:37;14.67;;;13.40;;
9052;SDS011;4561;47.450;7.516;2022-07-23T07:38:02;15.00;;;13.50;;
9052;SDS011;4561;47.450;7.516;2022-07-23T07:41:22;12.70;;;11.60;;
9052;SDS011;4561;47.450;7.516;2022-07-23T07:44:44;13.93;;;12.50;;
9052;SDS011;4561;47.450;7.516;2022-07-23T07:48:08;16.00;;;14.40;;
9052;SDS011;4561;47.450;7.516;2022-07-23T07:51:29;15.77;;;14.17;;
9052;SDS011;4561;47.450;7.516;2022-07-23T07:54:49;15.57;;;14.10;;
9052;SDS011;4561;47.450;7.516;2022-07-23T07:58:12;14.57;;;13.27;;
9052;SDS011;4561;47.450;7.516;2022-07-23T08:01:37;15.13;;;13.83;;
9052;SDS011;4561;47.450;7.516;2022-07-23T08:05:00;14.47;;;13.27;;
9052;SDS011;4561;47.450;7.516;2022-07-23T08:08:20;12.83;;;11.73;;
9052;SDS011;4561;47.450;7.516;2022-07-23T08:11:41;10.63;;;9.60;;
9052;SDS011;4561;47.450;7.516;2022-07-23T08:15:01;9.97;;;9.07;;
9052;SDS011;4561;47.450;7.516;2022-07-23T08:18:21;10.67;;;9.67;;
9052;SDS011;4561;47.450;7.516;2022-07-23T08:21:42;10.83;;;9.83;;
9052;SDS011;4561;47.450;7.516;2022-07-23T08:25:04;10.30;;;9.33;;
9052;SDS011;4561;47.450;7.516;2022-07-23T08:28:25;9.90;;;9.00;;
9052;SDS011;4561;47.450;7.516;2022-07-23T08:31:45;10.43;;;9.43;;
9052;SDS011;4561;47.450;7.516;2022-07-23T08:35:06;10.13;;;9.13;;
9052;SDS011;4561;47.450;7.516;2022-07-23T08:38:29;9.93;;;9.00;;
9052;SDS011;4561;47.450;7.516;2022-07-23T08:41:49;10.57;;;9.53;;
9052;SDS011;4561;47.450;7.516;2022-07-23T08:45:10;10.50;;;9.60;;
9052;SDS011;4561;47.450;7.516;2022-07-23T08:48:32;10.60;;;9.77;;
9052;SDS011;4561;47.450;7.516;2022-07-23T08:51:53;10.90;;;9.87;;
9052;SDS011;4561;47.450;7.516;2022-07-23T08:55:15;11.00;;;9.97;;
9052;SDS011;4561;47.450;7.516;2022-07-23T08:58:37;10.90;;;9.97;;
9052;SDS011;4561;47.450;7.516;2022-07-23T09:01:58;10.60;;;9.53;;
9052;SDS011;4561;47.450;7.516;2022-07-23T09:05:20;10.53;;;9.47;;
9052;SDS011;4561;47.450;7.516;2022-07-23T09:08:44;11.63;;;10.40;;
9052;SDS011;4561;47.450;7.516;2022-07-23T09:12:07;11.27;;;10.13;;
9052;SDS011;4561;47.450;7.516;2022-07-23T09:15:29;11.18;;;10.18;;
9052;SDS011;4561;47.450;7.516;2022-07-23T09:18:50;10.15;;;9.32;;
9052;SDS011;4561;47.450;7.516;2022-07-23T09:22:18;10.23;;;9.32;;
9052;SDS011;4561;47.450;7.516;2022-07-23T09:25:48;10.55;;;9.00;;
9052;SDS011;4561;47.450;7.516;2022-07-23T09:29:12;10.30;;;9.38;;
9052;SDS011;4561;47.450;7.516;2022-07-23T09:32:38;10.48;;;9.55;;
9052;SDS011;4561;47.450;7.516;2022-07-23T09:36:01;9.90;;;8.95;;
9052;SDS011;4561;47.450;7.516;2022-07-23T09:39:28;9.98;;;8.75;;
9052;SDS011;4561;47.450;7.516;2022-07-23T09:42:56;9.52;;;8.60;;
9052;SDS011;4561;47.450;7.516;2022-07-23T09:46:26;9.30;;;8.40;;
9052;SDS011;4561;47.450;7.516;2022-07-23T09:53:25;10.23;;;8.73;;
9052;SDS011;4561;47.450;7.516;2022-07-23T09:56:46;9.32;;;8.45;;
9052;SDS011;4561;47.450;7.516;2022-07-23T10:00:12;9.40;;;8.25;;
9052;SDS011;4561;47.450;7.516;2022-07-23T10:03:32;9.60;;;8.80;;
9052;SDS011;4561;47.450;7.516;2022-07-23T10:06:56;10.80;;;8.77;;
9052;SDS011;4561;47.450;7.516;2022-07-23T10:10:18;8.73;;;8.02;;
9052;SDS011;4561;47.450;7.516;2022-07-23T10:13:38;8.75;;;8.00;;
9052;SDS011;4561;47.450;7.516;2022-07-23T10:17:13;10.63;;;8.25;;
9052;SDS011;4561;47.450;7.516;2022-07-23T10:20:33;9.30;;;8.30;;
9052;SDS011;4561;47.450;7.516;2022-07-23T10:35:47;9.68;;;8.68;;
9052;SDS011;4561;47.450;7.516;2022-07-23T10:39:10;10.23;;;9.32;;
9052;SDS011;4561;47.450;7.516;2022-07-23T10:42:33;10.52;;;9.63;;
9052;SDS011;4561;47.450;7.516;2022-07-23T10:45:53;10.57;;;9.57;;
9052;SDS011;4561;47.450;7.516;2022-07-23T10:52:42;10.48;;;9.48;;
9052;SDS011;4561;47.450;7.516;2022-07-23T10:56:50;9.25;;;8.35;;
9052;SDS011;4561;47.450;7.516;2022-07-23T11:00:27;9.93;;;8.90;;
9052;SDS011;4561;47.450;7.516;2022-07-23T11:03:58;9.68;;;8.70;;
9052;SDS011;4561;47.450;7.516;2022-07-23T11:07:19;10.15;;;9.15;;
9052;SDS011;4561;47.450;7.516;2022-07-23T11:14:18;9.35;;;8.55;;
9052;SDS011;4561;47.450;7.516;2022-07-23T11:18:16;9.45;;;8.55;;
9052;SDS011;4561;47.450;7.516;2022-07-23T11:24:57;8.88;;;7.90;;
9052;SDS011;4561;47.450;7.516;2022-07-23T11:28:20;8.90;;;8.20;;
9052;SDS011;4561;47.450;7.516;2022-07-23T11:31:52;9.55;;;8.75;;
9052;SDS011;4561;47.450;7.516;2022-07-23T11:35:26;8.45;;;7.78;;
9052;SDS011;4561;47.450;7.516;2022-07-23T11:38:50;9.00;;;8.20;;
9052;SDS011;4561;47.450;7.516;2022-07-23T11:42:16;9.15;;;8.25;;
9052;SDS011;4561;47.450;7.516;2022-07-23T11:45:43;9.48;;;8.57;;
9052;SDS011;4561;47.450;7.516;2022-07-23T11:49:04;8.90;;;8.10;;
9052;SDS011;4561;47.450;7.516;2022-07-23T11:52:27;8.90;;;8.20;;
9052;SDS011;4561;47.450;7.516;2022-07-23T11:55:50;9.82;;;7.88;;
9052;SDS011;4561;47.450;7.516;2022-07-23T11:59:15;9.48;;;8.27;;
9052;SDS011;4561;47.450;7.516;2022-07-23T12:02:39;8.90;;;7.70;;
9052;SDS011;4561;47.450;7.516;2022-07-23T12:06:04;9.55;;;7.80;;
9052;SDS011;4561;47.450;7.516;2022-07-23T12:09:24;8.60;;;7.90;;
9052;SDS011;4561;47.450;7.516;2022-07-23T12:16:12;8.30;;;7.50;;
9052;SDS011;4561;47.450;7.516;2022-07-23T12:19:35;8.35;;;7.60;;
9052;SDS011;4561;47.450;7.516;2022-07-23T12:22:57;9.27;;;7.47;;
9052;SDS011;4561;47.450;7.516;2022-07-23T12:26:21;7.43;;;6.82;;
9052;SDS011;4561;47.450;7.516;2022-07-23T12:29:41;8.20;;;7.40;;
9052;SDS011;4561;47.450;7.516;2022-07-23T12:33:02;9.00;;;8.20;;
9052;SDS011;4561;47.450;7.516;2022-07-23T12:36:23;9.02;;;7.70;;
9052;SDS011;4561;47.450;7.516;2022-07-23T12:39:57;8.38;;;7.60;;
9052;SDS011;4561;47.450;7.516;2022-07-23T12:46:49;8.48;;;7.78;;
9052;SDS011;4561;47.450;7.516;2022-07-23T12:50:29;8.32;;;7.70;;
9052;SDS011;4561;47.450;7.516;2022-07-23T12:54:06;7.80;;;7.13;;
9052;SDS011;4561;47.450;7.516;2022-07-23T12:57:46;8.70;;;7.90;;
9052;SDS011;4561;47.450;7.516;2022-07-23T13:01:09;8.32;;;7.50;;
9052;SDS011;4561;47.450;7.516;2022-07-23T13:04:30;7.90;;;7.00;;
9052;SDS011;4561;47.450;7.516;2022-07-23T13:07:53;6.93;;;6.40;;
9052;SDS011;4561;47.450;7.516;2022-07-23T13:11:16;10.50;;;7.53;;
9052;SDS011;4561;47.450;7.516;2022-07-23T13:14:37;8.80;;;7.00;;
9052;SDS011;4561;47.450;7.516;2022-07-23T13:17:57;10.55;;;6.78;;
9052;SDS011;4561;47.450;7.516;2022-07-23T13:21:17;6.95;;;6.25;;
9052;SDS011;4561;47.450;7.516;2022-07-23T13:24:40;7.43;;;6.82;;
9052;SDS011;4561;47.450;7.516;2022-07-23T13:28:01;6.65;;;6.15;;
9052;SDS011;4561;47.450;7.516;2022-07-23T13:31:21;7.82;;;7.05;;
9052;SDS011;4561;47.450;7.516;2022-07-23T13:34:45;6.22;;;5.72;;
9052;SDS011;4561;47.450;7.516;2022-07-23T13:38:08;7.20;;;6.50;;
9052;SDS011;4561;47.450;7.516;2022-07-23T13:41:31;6.40;;;5.80;;
9052;SDS011;4561;47.450;7.516;2022-07-23T13:44:51;6.40;;;5.75;;
9052;SDS011;4561;47.450;7.516;2022-07-23T13:48:12;6.90;;;6.30;;
9052;SDS011;4561;47.450;7.516;2022-07-23T13:51:36;7.35;;;6.65;;
9052;SDS011;4561;47.450;7.516;2022-07-23T13:54:57;6.50;;;5.90;;
9052;SDS011;4561;47.450;7.516;2022-07-23T13:58:17;6.82;;;6.22;;
9052;SDS011;4561;47.450;7.516;2022-07-23T14:01:38;6.55;;;5.95;;
9052;SDS011;4561;47.450;7.516;2022-07-23T14:05:00;6.95;;;6.25;;
9052;SDS011;4561;47.450;7.516;2022-07-23T14:08:21;6.80;;;6.25;;
9052;SDS011;4561;47.450;7.516;2022-07-23T14:11:44;7.78;;;5.88;;
9052;SDS011;4561;47.450;7.516;2022-07-23T14:15:06;7.07;;;6.35;;
9052;SDS011;4561;47.450;7.516;2022-07-23T14:18:29;7.30;;;6.70;;
9052;SDS011;4561;47.450;7.516;2022-07-23T14:21:50;6.65;;;5.82;;
9052;SDS011;4561;47.450;7.516;2022-07-23T14:25:13;9.38;;;6.32;;
9052;SDS011;4561;47.450;7.516;2022-07-23T14:28:33;6.63;;;5.43;;
9052;SDS011;4561;47.450;7.516;2022-07-23T14:31:57;11.18;;;6.47;;
9052;SDS011;4561;47.450;7.516;2022-07-23T14:35:17;6.90;;;5.97;;
9052;SDS011;4561;47.450;7.516;2022-07-23T14:38:39;6.90;;;6.30;;
9052;SDS011;4561;47.450;7.516;2022-07-23T14:42:04;6.95;;;6.30;;
9052;SDS011;4561;47.450;7.516;2022-07-23T14:45:27;6.60;;;5.93;;
9052;SDS011;4561;47.450;7.516;2022-07-23T14:48:49;7.43;;;6.22;;
9052;SDS011;4561;47.450;7.516;2022-07-23T14:52:14;6.93;;;6.32;;
9052;SDS011;4561;47.450;7.516;2022-07-23T14:55:35;6.68;;;5.97;;
9052;SDS011;4561;47.450;7.516;2022-07-23T14:58:58;6.72;;;6.07;;
9052;SDS011;4561;47.450;7.516;2022-07-23T15:02:18;7.22;;;6.53;;
9052;SDS011;4561;47.450;7.516;2022-07-23T15:05:38;7.07;;;6.38;;
9052;SDS011;4561;47.450;7.516;2022-07-23T15:08:59;7.82;;;6.45;;
9052;SDS011;4561;47.450;7.516;2022-07-23T15:12:20;9.07;;;6.43;;
9052;SDS011;4561;47.450;7.516;2022-07-23T15:15:40;7.70;;;6.18;;
9052;SDS011;4561;47.450;7.516;2022-07-23T15:19:01;6.72;;;6.07;;
9052;SDS011;4561;47.450;7.516;2022-07-23T15:22:21;6.40;;;5.68;;
9052;SDS011;4561;47.450;7.516;2022-07-23T15:25:45;7.25;;;6.50;;
9052;SDS011;4561;47.450;7.516;2022-07-23T15:29:05;6.85;;;6.20;;
9052;SDS011;4561;47.450;7.516;2022-07-23T15:32:26;7.07;;;6.47;;
9052;SDS011;4561;47.450;7.516;2022-07-23T15:35:46;7.18;;;6.05;;
9052;SDS011;4561;47.450;7.516;2022-07-23T15:39:07;6.90;;;6.30;;
9052;SDS011;4561;47.450;7.516;2022-07-23T15:42:27;6.57;;;6.03;;
9052;SDS011;4561;47.450;7.516;2022-07-23T15:45:48;7.00;;;6.38;;
9052;SDS011;4561;47.450;7.516;2022-07-23T15:49:09;6.30;;;5.70;;
9052;SDS011;4561;47.450;7.516;2022-07-23T15:52:29;6.75;;;6.07;;
9052;SDS011;4561;47.450;7.516;2022-07-23T15:55:50;7.85;;;5.93;;
9052;SDS011;4561;47.450;7.516;2022-07-23T15:59:10;7.90;;;6.45;;
9052;SDS011;4561;47.450;7.516;2022-07-23T16:02:31;6.93;;;6.32;;
9052;SDS011;4561;47.450;7.516;2022-07-23T16:05:54;8.60;;;6.32;;
9052;SDS011;4561;47.450;7.516;2022-07-23T16:09:20;6.80;;;6.20;;
9052;SDS011;4561;47.450;7.516;2022-07-23T16:12:40;7.57;;;6.65;;
9052;SDS011;4561;47.450;7.516;2022-07-23T16:16:03;7.75;;;7.07;;
9052;SDS011;4561;47.450;7.516;2022-07-23T16:19:26;7.15;;;6.55;;
9052;SDS011;4561;47.450;7.516;2022-07-23T16:22:47;7.10;;;6.35;;
9052;SDS011;4561;47.450;7.516;2022-07-23T16:26:07;7.53;;;6.85;;
9052;SDS011;4561;47.450;7.516;2022-07-23T16:29:27;7.57;;;6.63;;
9052;SDS011;4561;47.450;7.516;2022-07-23T16:32:48;7.47;;;6.60;;
9052;SDS011;4561;47.450;7.516;2022-07-23T16:36:08;8.65;;;6.38;;
9052;SDS011;4561;47.450;7.516;2022-07-23T16:39:33;8.68;;;6.38;;
9052;SDS011;4561;47.450;7.516;2022-07-23T16:42:56;10.90;;;6.43;;
9052;SDS011;4561;47.450;7.516;2022-07-23T16:46:17;7.50;;;6.25;;
9052;SDS011;4561;47.450;7.516;2022-07-23T16:49:38;7.18;;;6.45;;
9052;SDS011;4561;47.450;7.516;2022-07-23T16:52:58;8.82;;;6.40;;
9052;SDS011;4561;47.450;7.516;2022-07-23T16:56:18;10.25;;;6.68;;
9052;SDS011;4561;47.450;7.516;2022-07-23T16:59:39;8.82;;;6.38;;
9052;SDS011;4561;47.450;7.516;2022-07-23T17:03:02;6.90;;;6.30;;
9052;SDS011;4561;47.450;7.516;2022-07-23T17:06:22;7.35;;;6.65;;
9052;SDS011;4561;47.450;7.516;2022-07-23T17:09:45;6.80;;;6.20;;
9052;SDS011;4561;47.450;7.516;2022-07-23T17:13:07;6.50;;;5.90;;
9052;SDS011;4561;47.450;7.516;2022-07-23T17:16:28;8.38;;;6.47;;
9052;SDS011;4561;47.450;7.516;2022-07-23T17:19:49;7.47;;;6.10;;
9052;SDS011;4561;47.450;7.516;2022-07-23T17:23:11;7.35;;;6.07;;
9052;SDS011;4561;47.450;7.516;2022-07-23T17:26:34;6.18;;;5.68;;
9052;SDS011;4561;47.450;7.516;2022-07-23T17:29:54;9.73;;;6.35;;
9052;SDS011;4561;47.450;7.516;2022-07-23T17:33:15;6.63;;;6.00;;
9052;SDS011;4561;47.450;7.516;2022-07-23T17:36:35;7.05;;;6.43;;
9052;SDS011;4561;47.450;7.516;2022-07-23T17:39:56;6.78;;;6.18;;
9052;SDS011;4561;47.450;7.516;2022-07-23T17:43:17;6.97;;;6.32;;
9052;SDS011;4561;47.450;7.516;2022-07-23T17:46:38;7.47;;;6.10;;
9052;SDS011;4561;47.450;7.516;2022-07-23T17:49:58;6.95;;;6.30;;
9052;SDS011;4561;47.450;7.516;2022-07-23T17:53:21;7.00;;;6.30;;
9052;SDS011;4561;47.450;7.516;2022-07-23T17:56:43;7.45;;;6.18;;
9052;SDS011;4561;47.450;7.516;2022-07-23T18:00:09;7.07;;;6.47;;
9052;SDS011;4561;47.450;7.516;2022-07-23T18:03:37;6.80;;;6.30;;
9052;SDS011;4561;47.450;7.516;2022-07-23T18:06:57;7.45;;;6.63;;
9052;SDS011;4561;47.450;7.516;2022-07-23T18:10:18;6.82;;;5.93;;
9052;SDS011;4561;47.450;7.516;2022-07-23T18:13:38;7.22;;;6.55;;
9052;SDS011;4561;47.450;7.516;2022-07-23T18:17:01;7.95;;;6.55;;
9052;SDS011;4561;47.450;7.516;2022-07-23T18:20:24;6.30;;;5.70;;
9052;SDS011;4561;47.450;7.516;2022-07-23T18:23:44;7.10;;;6.43;;
9052;SDS011;4561;47.450;7.516;2022-07-23T18:27:09;7.78;;;7.07;;
9052;SDS011;4561;47.450;7.516;2022-07-23T18:30:30;7.45;;;6.32;;
9052;SDS011;4561;47.450;7.516;2022-07-23T18:33:53;7.82;;;6.22;;
9052;SDS011;4561;47.450;7.516;2022-07-23T18:37:13;7.05;;;6.20;;
9052;SDS011;4561;47.450;7.516;2022-07-23T18:40:36;8.15;;;6.28;;
9052;SDS011;4561;47.450;7.516;2022-07-23T18:43:59;7.05;;;6.28;;
9052;SDS011;4561;47.450;7.516;2022-07-23T18:47:20;6.90;;;6.30;;
9052;SDS011;4561;47.450;7.516;2022-07-23T18:50:41;10.32;;;6.30;;
9052;SDS011;4561;47.450;7.516;2022-07-23T18:54:04;7.32;;;6.63;;
9052;SDS011;4561;47.450;7.516;2022-07-23T18:57:27;8.73;;;6.90;;
9052;SDS011;4561;47.450;7.516;2022-07-23T19:00:52;7.88;;;6.65;;
9052;SDS011;4561;47.450;7.516;2022-07-23T19:04:13;8.75;;;6.45;;
9052;SDS011;4561;47.450;7.516;2022-07-23T19:07:33;8.43;;;6.90;;
9052;SDS011;4561;47.450;7.516;2022-07-23T19:10:54;7.65;;;6.95;;
9052;SDS011;4561;47.450;7.516;2022-07-23T19:14:15;6.50;;;5.90;;
9052;SDS011;4561;47.450;7.516;2022-07-23T19:17:38;7.75;;;6.63;;
9052;SDS011;4561;47.450;7.516;2022-07-23T19:21:01;7.03;;;6.43;;
9052;SDS011;4561;47.450;7.516;2022-07-23T19:24:22;7.30;;;6.22;;
9052;SDS011;4561;47.450;7.516;2022-07-23T19:27:42;9.13;;;6.38;;
9052;SDS011;4561;47.450;7.516;2022-07-23T19:31:06;9.95;;;7.50;;
9052;SDS011;4561;47.450;7.516;2022-07-23T19:34:26;6.97;;;6.07;;
9052;SDS011;4561;47.450;7.516;2022-07-23T19:37:49;6.25;;;5.70;;
9052;SDS011;4561;47.450;7.516;2022-07-23T19:41:14;6.97;;;6.13;;
9052;SDS011;4561;47.450;7.516;2022-07-23T19:44:34;7.60;;;5.87;;
9052;SDS011;4561;47.450;7.516;2022-07-23T19:47:55;7.18;;;6.32;;
9052;SDS011;4561;47.450;7.516;2022-07-23T19:51:15;6.25;;;5.72;;
9052;SDS011;4561;47.450;7.516;2022-07-23T19:54:37;6.57;;;5.97;;
9052;SDS011;4561;47.450;7.516;2022-07-23T19:57:57;7.68;;;6.90;;
9052;SDS011;4561;47.450;7.516;2022-07-23T20:01:18;6.93;;;6.33;;
9052;SDS011;4561;47.450;7.516;2022-07-23T20:04:38;6.77;;;6.17;;
9052;SDS011;4561;47.450;7.516;2022-07-23T20:07:59;6.87;;;6.23;;
9052;SDS011;4561;47.450;7.516;2022-07-23T20:11:19;7.00;;;6.50;;
9052;SDS011;4561;47.450;7.516;2022-07-23T20:14:39;8.20;;;6.78;;
9052;SDS011;4561;47.450;7.516;2022-07-23T20:18:03;7.75;;;6.50;;
9052;SDS011;4561;47.450;7.516;2022-07-23T20:21:23;6.90;;;6.03;;
9052;SDS011;4561;47.450;7.516;2022-07-23T20:24:46;6.77;;;6.13;;
9052;SDS011;4561;47.450;7.516;2022-07-23T20:28:07;8.70;;;6.80;;
9052;SDS011;4561;47.450;7.516;2022-07-23T20:31:27;8.53;;;7.40;;
9052;SDS011;4561;47.450;7.516;2022-07-23T20:34:48;8.23;;;7.43;;
9052;SDS011;4561;47.450;7.516;2022-07-23T20:38:08;7.90;;;7.20;;
9052;SDS011;4561;47.450;7.516;2022-07-23T20:41:32;8.30;;;7.50;;
9052;SDS011;4561;47.450;7.516;2022-07-23T20:44:53;8.27;;;7.53;;
9052;SDS011;4561;47.450;7.516;2022-07-23T20:48:15;7.77;;;7.07;;
9052;SDS011;4561;47.450;7.516;2022-07-23T20:51:36;9.53;;;7.83;;
9052;SDS011;4561;47.450;7.516;2022-07-23T20:54:58;8.13;;;7.37;;
9052;SDS011;4561;47.450;7.516;2022-07-23T20:58:19;8.67;;;7.77;;
9052;SDS011;4561;47.450;7.516;2022-07-23T21:01:42;7.93;;;7.33;;
9052;SDS011;4561;47.450;7.516;2022-07-23T21:05:02;8.37;;;7.47;;
9052;SDS011;4561;47.450;7.516;2022-07-23T21:08:23;7.83;;;7.13;;
9052;SDS011;4561;47.450;7.516;2022-07-23T21:11:46;8.67;;;7.90;;
9052;SDS011;4561;47.450;7.516;2022-07-23T21:15:09;8.00;;;7.20;;